Time;durP1;ratioP1;P1;durP2;ratioP2;P2;SDS_P1;SDS_P2;PMS_P1;PMS_P2;Temp;Humidity;BMP_temperature;BMP_pressure;BME280_temperature;BME280_humidity;BME280_pressure;Samples;Min_cycle;Max_cycle;Signal;HPM_P1;HPM_P2
2021/09/05 00:00:15;;;;;;;9.70;5.10;;;;;;;8.96;79.35;101244.69;95297;1180;97556;-63
2021/09/05 00:02:43;;;;;;;17.60;11.30;;;;;;;8.84;79.31;101247.31;95295;1180;89118;-63
2021/09/05 00:04:51;;;;;;;13.90;8.40;;;;;;;8.75;79.36;101246.15;95252;1180;94871;-59
2021/09/05 00:06:59;;;;;;;12.80;8.60;;;;;;;8.67;79.43;101250.42;95278;1180;79758;-59
2021/09/05 00:09:06;;;;;;;15.70;8.60;;;;;;;8.60;79.46;101245.88;95277;1180;83146;-59
2021/09/05 00:11:14;;;;;;;13.30;8.20;;;;;;;8.55;79.63;101245.69;95269;1180;98043;-59
2021/09/05 00:13:22;;;;;;;11.40;6.40;;;;;;;8.49;79.77;101244.20;95289;1180;87924;-63
2021/09/05 00:15:29;;;;;;;12.60;6.50;;;;;;;8.47;79.89;101246.59;95269;1180;92279;-63
2021/09/05 00:17:37;;;;;;;14.90;7.20;;;;;;;8.43;79.80;101246.42;95281;1180;81203;-63
2021/09/05 00:19:45;;;;;;;15.60;8.00;;;;;;;8.41;79.86;101252.94;95304;1180;81272;-59
2021/09/05 00:21:55;;;;;;;15.10;8.30;;;;;;;8.35;80.12;101255.45;95298;1180;98698;-59
2021/09/05 00:24:03;;;;;;;13.90;7.50;;;;;;;8.32;80.04;101256.29;95288;1180;87037;-60
2021/09/05 00:26:11;;;;;;;15.10;8.20;;;;;;;8.30;80.14;101264.02;95272;1180;95368;-60
2021/09/05 00:28:18;;;;;;;18.00;8.20;;;;;;;8.26;80.16;101262.84;95272;1180;81221;-63
2021/09/05 00:30:26;;;;;;;19.40;9.30;;;;;;;8.24;80.18;101263.59;95229;1180;82305;-64
2021/09/05 00:32:34;;;;;;;16.90;9.30;;;;;;;8.26;80.38;101263.73;95273;1180;97264;-64
2021/09/05 00:34:44;;;;;;;19.90;9.90;;;;;;;8.22;80.42;101262.98;95252;1180;87218;-64
2021/09/05 00:36:52;;;;;;;17.90;9.70;;;;;;;8.20;80.38;101261.95;95263;1180;94407;-64
2021/09/05 00:39:00;;;;;;;20.80;9.50;;;;;;;8.17;80.38;101261.33;95299;1180;80759;-60
2021/09/05 00:41:07;;;;;;;19.30;9.60;;;;;;;8.12;80.54;101262.65;95270;1180;81601;-60
2021/09/05 00:43:15;;;;;;;21.30;11.00;;;;;;;8.10;80.47;101265.89;95305;1180;99040;-60
2021/09/05 00:45:25;;;;;;;21.00;10.70;;;;;;;8.08;80.52;101269.84;95288;1180;87512;-60
2021/09/05 00:47:36;;;;;;;22.20;12.80;;;;;;;8.07;80.70;101272.08;95283;1180;94053;-60
2021/09/05 00:49:44;;;;;;;21.70;12.30;;;;;;;8.08;80.54;101272.00;95321;1180;79194;-64
2021/09/05 00:51:53;;;;;;;21.80;10.90;;;;;;;8.05;80.58;101274.08;95290;1180;81728;-64
2021/09/05 00:54:03;;;;;;;22.60;10.70;;;;;;;8.03;80.48;101274.23;95258;1180;98325;-60
2021/09/05 00:56:11;;;;;;;22.10;9.90;;;;;;;8.05;80.51;101274.23;95288;1180;88040;-60
2021/09/05 00:58:19;;;;;;;16.20;8.20;;;;;;;8.13;80.46;101280.05;95282;1180;91916;-64
2021/09/05 01:00:27;;;;;;;12.10;7.30;;;;;;;8.25;80.56;101282.27;95282;1180;80181;-64
2021/09/05 01:02:35;;;;;;;12.40;7.70;;;;;;;8.38;80.45;101283.34;95338;1180;80314;-64
2021/09/05 01:04:43;;;;;;;12.80;6.60;;;;;;;8.49;80.36;101278.62;95290;1180;99741;-60
2021/09/05 01:06:51;;;;;;;12.60;6.70;;;;;;;8.55;80.15;101282.34;95319;1180;86717;-60
2021/09/05 01:09:04;;;;;;;12.80;7.40;;;;;;;8.54;80.15;101285.16;95284;1180;95676;-64
2021/09/05 01:11:12;;;;;;;13.00;7.70;;;;;;;8.51;79.96;101282.38;95272;1180;78936;-64
2021/09/05 01:13:20;;;;;;;15.70;8.60;;;;;;;8.41;79.93;101284.34;95260;1180;80469;-64
2021/09/05 01:15:28;;;;;;;12.10;7.30;;;;;;;8.31;80.10;101287.66;95261;1180;98332;-64
2021/09/05 01:17:39;;;;;;;12.70;7.40;;;;;;;8.23;79.95;101287.90;95292;1180;88400;-64
2021/09/05 01:19:46;;;;;;;18.00;8.90;;;;;;;8.19;79.97;101287.92;95279;1180;92351;-64
2021/09/05 01:21:55;;;;;;;15.40;8.10;;;;;;;8.07;80.43;101289.88;95306;1180;78285;-64
2021/09/05 01:24:03;;;;;;;16.00;8.70;;;;;;;7.98;80.49;101290.02;95297;1180;81386;-59
2021/09/05 01:26:12;;;;;;;13.70;7.30;;;;;;;7.95;80.35;101291.39;95268;1180;98760;-59
2021/09/05 01:28:20;;;;;;;14.30;7.90;;;;;;;7.90;80.45;101298.52;95291;1180;86124;-63
2021/09/05 01:30:27;;;;;;;15.20;8.20;;;;;;;7.84;80.39;101301.11;95253;1180;93411;-64
2021/09/05 01:32:35;;;;;;;12.60;7.10;;;;;;;7.81;80.47;101306.95;95286;1180;79030;-64
2021/09/05 01:34:46;;;;;;;13.00;7.10;;;;;;;7.78;80.57;101306.17;95279;1180;83349;-60
2021/09/05 01:36:55;;;;;;;14.70;7.90;;;;;;;7.73;80.50;101304.64;95287;1180;97499;-60
2021/09/05 01:39:02;;;;;;;12.90;7.10;;;;;;;7.68;80.58;101308.00;95260;1180;88329;-60
2021/09/05 01:41:11;;;;;;;12.50;7.10;;;;;;;7.63;80.63;101304.55;95273;1180;94241;-60
2021/09/05 01:43:18;;;;;;;15.40;7.60;;;;;;;7.57;80.75;101303.92;95278;1180;78794;-60
2021/09/05 01:45:26;;;;;;;12.90;7.30;;;;;;;7.54;80.71;101305.30;95303;1180;81231;-60
2021/09/05 01:47:34;;;;;;;12.30;6.50;;;;;;;7.51;80.68;101309.17;95287;1180;98876;-60
2021/09/05 01:49:42;;;;;;;12.10;6.70;;;;;;;7.45;80.86;101305.14;95316;1180;88398;-64
2021/09/05 01:51:52;;;;;;;12.40;7.20;;;;;;;7.42;80.81;101308.79;95263;1180;93947;-64
2021/09/05 01:54:00;;;;;;;14.30;6.80;;;;;;;7.40;80.83;101315.23;95279;1180;78381;-60
2021/09/05 01:56:08;;;;;;;12.20;6.40;;;;;;;7.37;80.93;101315.69;95294;1180;82590;-60
2021/09/05 01:58:15;;;;;;;10.90;6.20;;;;;;;7.33;80.88;101320.02;95199;1182;96438;-64
2021/09/05 02:00:26;;;;;;;12.70;7.00;;;;;;;7.29;81.01;101320.30;95293;1180;85803;-64
2021/09/05 02:02:33;;;;;;;14.20;6.80;;;;;;;7.25;81.05;101326.75;95289;1180;94074;-64
2021/09/05 02:04:41;;;;;;;12.90;6.30;;;;;;;7.21;81.08;101329.79;95305;1180;80840;-64
2021/09/05 02:06:49;;;;;;;13.20;7.20;;;;;;;7.19;81.18;101330.02;95261;1180;81552;-64
2021/09/05 02:08:58;;;;;;;12.10;7.00;;;;;;;7.18;81.27;101333.55;95167;1182;98777;-64
2021/09/05 02:11:05;;;;;;;12.40;6.50;;;;;;;7.18;81.35;101335.30;95311;1180;86894;-64
2021/09/05 02:13:13;;;;;;;12.60;6.90;;;;;;;7.16;81.22;101336.92;95251;1180;93122;-60
2021/09/05 02:15:21;;;;;;;15.90;6.60;;;;;;;7.11;81.37;101335.23;95244;1180;79963;-60
2021/09/05 02:17:28;;;;;;;14.40;6.80;;;;;;;7.08;81.29;101336.27;95287;1180;81685;-60
2021/09/05 02:19:39;;;;;;;13.30;7.10;;;;;;;7.06;81.35;101336.94;95303;1180;97158;-64
2021/09/05 02:21:50;;;;;;;11.30;6.50;;;;;;;7.05;81.56;101339.05;95290;1180;87562;-64
2021/09/05 02:23:58;;;;;;;12.40;6.50;;;;;;;7.01;81.55;101341.96;95276;1180;92161;-60
2021/09/05 02:26:08;;;;;;;12.30;6.50;;;;;;;6.97;81.66;101336.60;95278;1180;80983;-60
2021/09/05 02:28:16;;;;;;;12.10;6.40;;;;;;;6.97;81.66;101342.27;95310;1180;82156;-60
2021/09/05 02:30:24;;;;;;;13.50;7.80;;;;;;;6.97;81.69;101344.43;95256;1180;99510;-60
2021/09/05 02:32:32;;;;;;;12.50;7.00;;;;;;;6.98;81.77;101343.14;95288;1180;87656;-60
2021/09/05 02:34:39;;;;;;;15.10;7.20;;;;;;;6.96;81.72;101347.36;95263;1180;94637;-60
2021/09/05 02:36:47;;;;;;;14.70;6.30;;;;;;;6.93;81.70;101347.14;95280;1180;78192;-60
2021/09/05 02:38:54;;;;;;;14.30;6.90;;;;;;;6.90;81.77;101351.58;95288;1180;82236;-60
2021/09/05 02:41:02;;;;;;;11.30;5.90;;;;;;;6.86;81.81;101351.61;95250;1180;97547;-60
2021/09/05 02:43:10;;;;;;;10.70;6.50;;;;;;;6.82;81.78;101348.95;95283;1180;88133;-64
2021/09/05 02:45:18;;;;;;;12.80;6.40;;;;;;;6.80;81.66;101356.64;95273;1180;93733;-64
2021/09/05 02:47:25;;;;;;;12.50;6.60;;;;;;;6.78;81.82;101358.95;95285;1180;79285;-64
2021/09/05 02:49:33;;;;;;;16.30;7.60;;;;;;;6.73;81.86;101362.24;95286;1180;81770;-64
2021/09/05 02:51:42;;;;;;;12.40;6.70;;;;;;;6.70;81.93;101359.87;95273;1180;98518;-64
2021/09/05 02:53:50;;;;;;;12.40;6.40;;;;;;;6.67;81.78;101362.19;95239;1180;88408;-60
2021/09/05 02:55:57;;;;;;;13.10;7.20;;;;;;;6.64;81.86;101364.73;95273;1180;94253;-60
2021/09/05 02:58:05;;;;;;;12.90;7.10;;;;;;;6.63;82.02;101366.82;95309;1180;79970;-61
2021/09/05 03:00:15;;;;;;;13.60;7.40;;;;;;;6.60;81.94;101368.70;95279;1180;81840;-61
2021/09/05 03:02:22;;;;;;;13.30;6.80;;;;;;;6.58;81.91;101367.83;95273;1180;97193;-60
2021/09/05 03:04:30;;;;;;;12.40;6.50;;;;;;;6.54;81.87;101367.80;95266;1180;87688;-60
2021/09/05 03:06:38;;;;;;;11.50;6.40;;;;;;;6.50;81.96;101368.66;95284;1180;93869;-60
2021/09/05 03:08:45;;;;;;;15.40;7.90;;;;;;;6.48;82.16;101371.41;95255;1180;79671;-64
2021/09/05 03:10:53;;;;;;;12.00;6.40;;;;;;;6.47;82.21;101370.56;95299;1180;80382;-64
2021/09/05 03:13:01;;;;;;;11.90;6.60;;;;;;;6.46;82.12;101374.29;95247;1180;98708;-64
2021/09/05 03:15:11;;;;;;;14.40;7.10;;;;;;;6.44;82.23;101373.40;95280;1180;86485;-64
2021/09/05 03:17:19;;;;;;;14.90;6.70;;;;;;;6.43;82.14;101378.32;95289;1180;93136;-64
2021/09/05 03:19:26;;;;;;;14.50;6.60;;;;;;;6.39;82.31;101375.21;95244;1180;81957;-60
2021/09/05 03:21:38;;;;;;;14.50;7.20;;;;;;;6.38;82.51;101372.65;95272;1180;81486;-60
2021/09/05 03:23:48;;;;;;;10.60;6.30;;;;;;;6.37;82.43;101377.44;95260;1180;98672;-64
2021/09/05 03:25:56;;;;;;;11.30;6.30;;;;;;;6.35;82.45;101375.77;95300;1180;87506;-64
2021/09/05 03:28:04;;;;;;;10.50;5.90;;;;;;;6.33;82.45;101378.48;95263;1180;93876;-60
2021/09/05 03:30:14;;;;;;;11.50;5.90;;;;;;;6.31;82.53;101379.04;95277;1180;80246;-60
2021/09/05 03:32:21;;;;;;;10.20;5.60;;;;;;;6.30;82.45;101380.36;95292;1180;81712;-60
2021/09/05 03:34:29;;;;;;;9.80;5.90;;;;;;;6.31;82.63;101380.11;95262;1180;98884;-60
2021/09/05 03:36:36;;;;;;;11.10;6.10;;;;;;;6.30;82.45;101384.98;95270;1180;86027;-60
2021/09/05 03:38:44;;;;;;;10.40;5.50;;;;;;;6.28;82.65;101383.80;95275;1180;92445;-64
2021/09/05 03:40:51;;;;;;;9.10;5.80;;;;;;;6.28;82.55;101388.46;95261;1180;79809;-62
2021/09/05 03:43:02;;;;;;;9.40;5.20;;;;;;;6.30;82.59;101387.86;95285;1180;81397;-59
2021/09/05 03:45:12;;;;;;;9.40;5.60;;;;;;;6.34;82.65;101385.77;95295;1180;99535;-58
2021/09/05 03:47:19;;;;;;;9.10;4.90;;;;;;;6.38;82.90;101388.79;95287;1180;88309;-58
2021/09/05 03:49:28;;;;;;;9.10;5.30;;;;;;;6.43;82.84;101390.41;95263;1180;93901;-63
2021/09/05 03:51:36;;;;;;;10.40;5.80;;;;;;;6.45;82.82;101394.23;95279;1180;79598;-63
2021/09/05 03:53:45;;;;;;;9.30;5.10;;;;;;;6.46;82.88;101395.17;95302;1180;81370;-63
2021/09/05 03:55:52;;;;;;;9.20;5.40;;;;;;;6.45;82.74;101399.43;95272;1180;99438;-63
2021/09/05 03:58:03;;;;;;;8.20;5.20;;;;;;;6.44;82.81;101400.70;95272;1180;88004;-63
2021/09/05 04:00:14;;;;;;;8.00;4.80;;;;;;;6.43;82.72;101404.73;95271;1180;94339;-58
2021/09/05 04:02:25;;;;;;;7.30;5.10;;;;;;;6.44;82.95;101405.92;95286;1180;77735;-59
2021/09/05 04:04:32;;;;;;;7.70;5.00;;;;;;;6.48;83.01;101405.42;95285;1180;81939;-63
2021/09/05 04:06:40;;;;;;;7.30;5.20;;;;;;;6.51;83.04;101405.48;95266;1180;98183;-62
2021/09/05 04:08:52;;;;;;;6.10;4.50;;;;;;;6.57;83.07;101413.74;95307;1180;88149;-59
2021/09/05 04:10:59;;;;;;;8.60;4.70;;;;;;;6.61;83.01;101417.34;95278;1180;93843;-59
2021/09/05 04:13:09;;;;;;;6.00;4.60;;;;;;;6.64;83.15;101417.89;95247;1180;79515;-58
2021/09/05 04:15:16;;;;;;;8.90;5.40;;;;;;;6.66;83.13;101418.23;95292;1180;80740;-59
2021/09/05 04:17:25;;;;;;;9.90;5.30;;;;;;;6.68;83.08;101424.34;95269;1180;97518;-58
2021/09/05 04:19:32;;;;;;;9.90;4.90;;;;;;;6.70;83.11;101424.39;95280;1180;87738;-58
2021/09/05 04:21:40;;;;;;;7.00;4.60;;;;;;;6.71;83.03;101430.72;95170;1184;93708;-59
2021/09/05 04:23:50;;;;;;;7.30;5.10;;;;;;;6.72;83.00;101431.63;95266;1180;80876;-58
2021/09/05 04:25:58;;;;;;;9.70;5.30;;;;;;;6.78;83.04;101434.33;95260;1180;80709;-59
2021/09/05 04:28:06;;;;;;;8.20;5.20;;;;;;;6.82;83.15;101435.77;95291;1180;98018;-62
2021/09/05 04:30:17;;;;;;;7.80;5.10;;;;;;;6.86;82.93;101438.65;95267;1180;87891;-63
2021/09/05 04:32:25;;;;;;;9.60;5.70;;;;;;;6.90;83.06;101438.80;95242;1180;93095;-63
2021/09/05 04:34:35;;;;;;;8.60;5.00;;;;;;;6.95;83.08;101435.04;95254;1180;79423;-59
2021/09/05 04:36:43;;;;;;;10.00;5.90;;;;;;;7.03;83.32;101441.50;95269;1180;80094;-58
2021/09/05 04:38:51;;;;;;;10.60;5.70;;;;;;;7.24;83.30;101443.86;95246;1180;96971;-63
2021/09/05 04:40:58;;;;;;;11.40;6.60;;;;;;;8.16;83.41;101437.26;95302;1180;87275;-63
2021/09/05 04:43:06;;;;;;;11.00;6.20;;;;;;;9.51;83.08;101437.53;95257;1180;92817;-63
2021/09/05 04:45:14;;;;;;;10.60;5.70;;;;;;;10.20;81.40;101432.90;95284;1180;80580;-64
2021/09/05 04:47:22;;;;;;;13.00;7.10;;;;;;;9.96;80.43;101439.70;95294;1180;81344;-64
2021/09/05 04:49:31;;;;;;;10.90;6.90;;;;;;;9.70;80.54;101443.15;95295;1180;98065;-64
2021/09/05 04:51:39;;;;;;;12.00;6.10;;;;;;;9.71;80.61;101446.93;95299;1180;86784;-64
2021/09/05 04:53:46;;;;;;;9.20;5.50;;;;;;;9.67;80.64;101445.45;95257;1180;93909;-64
2021/09/05 04:55:54;;;;;;;10.30;6.20;;;;;;;9.57;80.54;101448.85;95274;1180;79783;-64
2021/09/05 04:58:01;;;;;;;9.00;5.60;;;;;;;9.55;80.60;101449.39;95300;1180;81603;-64
2021/09/05 05:00:14;;;;;;;8.70;5.70;;;;;;;9.51;80.54;101449.77;95282;1180;98404;-64
2021/09/05 05:02:22;;;;;;;8.50;5.50;;;;;;;9.49;80.56;101455.96;95298;1180;87692;-64
2021/09/05 05:04:30;;;;;;;8.60;5.20;;;;;;;9.48;80.60;101453.81;95248;1180;93842;-65
2021/09/05 05:06:44;;;;;;;9.00;5.40;;;;;;;9.53;80.45;101457.77;95277;1180;79226;-64
2021/09/05 05:08:51;;;;;;;;;;;;;;;9.57;80.53;101457.38;95290;1180;80716;-64
2021/09/05 05:10:59;;;;;;;7.80;4.90;;;;;;;9.64;80.54;101459.91;95287;1180;97996;-64
2021/09/05 05:13:07;;;;;;;9.00;4.80;;;;;;;9.73;80.41;101464.19;95300;1180;86891;-60
2021/09/05 05:15:15;;;;;;;8.90;4.80;;;;;;;9.81;80.41;101463.39;95243;1180;93184;-60
2021/09/05 05:17:22;;;;;;;6.50;4.10;;;;;;;9.82;80.44;101464.34;95302;1180;79170;-60
2021/09/05 05:19:33;;;;;;;6.80;4.10;;;;;;;10.02;80.52;101461.86;95296;1180;82472;-64
2021/09/05 05:21:41;;;;;;;6.80;4.40;;;;;;;11.14;80.82;101468.41;95268;1180;99894;-64
2021/09/05 05:23:49;;;;;;;8.80;5.40;;;;;;;12.55;80.89;101462.17;95240;1180;87872;-64
2021/09/05 05:25:57;;;;;;;8.50;4.50;;;;;;;13.48;79.13;101461.11;95270;1180;93231;-64
2021/09/05 05:28:05;;;;;;;11.10;4.50;;;;;;;14.70;77.36;101463.05;95253;1180;77883;-64
2021/09/05 05:30:14;;;;;;;9.40;3.90;;;;;;;15.71;75.94;101466.80;95278;1180;81863;-65
2021/09/05 05:32:22;;;;;;;6.30;3.30;;;;;;;16.46;73.67;101460.05;95280;1180;98991;-64
2021/09/05 05:34:29;;;;;;;5.50;3.00;;;;;;;16.37;72.01;101459.73;95267;1180;88368;-65
2021/09/05 05:36:37;;;;;;;4.00;3.20;;;;;;;16.03;70.84;101466.91;95273;1180;93532;-63
2021/09/05 05:38:45;;;;;;;4.70;3.10;;;;;;;15.50;69.86;101472.82;95271;1180;79222;-64
2021/09/05 05:40:52;;;;;;;4.80;2.50;;;;;;;14.80;69.39;101469.02;95282;1180;80483;-64
2021/09/05 05:43:01;;;;;;;4.70;2.80;;;;;;;14.05;69.60;101466.52;95266;1180;98605;-60
2021/09/05 05:45:11;;;;;;;5.80;2.80;;;;;;;13.54;70.00;101471.54;95289;1180;87465;-59
2021/09/05 05:47:18;;;;;;;4.80;2.80;;;;;;;13.16;70.26;101478.05;95295;1180;93644;-60
2021/09/05 05:49:26;;;;;;;4.50;2.80;;;;;;;12.86;70.53;101474.86;95260;1180;80058;-59
2021/09/05 05:51:33;;;;;;;5.10;3.20;;;;;;;12.68;70.88;101480.61;95302;1180;82302;-59
2021/09/05 05:53:41;;;;;;;6.00;3.60;;;;;;;12.44;71.14;101477.80;95227;1180;98961;-59
2021/09/05 05:55:52;;;;;;;6.10;3.70;;;;;;;12.33;71.47;101481.40;95263;1180;88390;-59
2021/09/05 05:58:03;;;;;;;7.30;4.50;;;;;;;12.38;71.72;101483.27;95282;1180;94486;-61
2021/09/05 06:00:13;;;;;;;5.20;3.60;;;;;;;12.55;71.81;101483.51;95250;1180;79812;-63
2021/09/05 06:02:21;;;;;;;5.50;2.90;;;;;;;13.36;71.91;101485.44;95321;1180;80103;-63
2021/09/05 06:04:29;;;;;;;6.30;3.00;;;;;;;14.33;71.65;101484.15;95254;1180;98539;-59
2021/09/05 06:06:38;;;;;;;5.60;2.80;;;;;;;14.33;70.42;101485.27;95278;1180;88211;-59
2021/09/05 06:08:46;;;;;;;6.50;3.00;;;;;;;13.98;70.65;101488.20;95294;1180;94463;-63
2021/09/05 06:10:53;;;;;;;6.60;3.20;;;;;;;13.96;70.55;101492.27;95287;1180;78711;-62
2021/09/05 06:13:01;;;;;;;5.70;3.00;;;;;;;14.05;70.19;101494.05;95288;1180;79885;-60
2021/09/05 06:15:11;;;;;;;4.30;2.90;;;;;;;14.01;70.00;101493.30;95257;1180;99845;-64
2021/09/05 06:17:19;;;;;;;4.10;2.60;;;;;;;13.91;70.03;101495.85;95322;1180;88300;-63
2021/09/05 06:19:26;;;;;;;4.80;2.90;;;;;;;13.65;69.83;101503.86;95269;1180;94153;-59
2021/09/05 06:21:34;;;;;;;4.20;2.70;;;;;;;13.38;69.78;101501.48;95290;1180;78544;-59
2021/09/05 06:23:42;;;;;;;5.20;2.50;;;;;;;13.23;70.09;101506.46;95258;1180;80806;-64
2021/09/05 06:25:50;;;;;;;4.20;2.80;;;;;;;13.23;70.41;101509.38;95265;1180;98088;-64
2021/09/05 06:28:07;;;;;;;6.00;3.30;;;;;;;13.34;70.34;101507.39;95309;1180;87501;-64
2021/09/05 06:30:16;;;;;;;3.70;2.50;;;;;;;13.61;70.34;101509.35;95312;1180;93574;-64
2021/09/05 06:32:24;;;;;;;5.20;2.30;;;;;;;13.67;70.18;101512.16;95280;1180;79401;-64
2021/09/05 06:34:31;;;;;;;3.00;1.60;;;;;;;13.54;69.83;101514.33;95267;1180;82573;-60
2021/09/05 06:36:39;;;;;;;3.30;2.20;;;;;;;13.42;69.79;101517.40;95271;1180;98111;-61
2021/09/05 06:38:46;;;;;;;4.20;1.90;;;;;;;13.41;70.09;101516.30;95271;1180;88378;-60
2021/09/05 06:40:54;;;;;;;6.00;1.90;;;;;;;13.35;69.75;101515.31;95294;1180;93148;-60
2021/09/05 06:43:01;;;;;;;4.00;1.90;;;;;;;13.26;69.52;101519.92;95267;1180;79993;-61
2021/09/05 06:45:11;;;;;;;3.80;2.30;;;;;;;13.20;69.76;101519.69;95286;1180;80858;-60
2021/09/05 06:47:18;;;;;;;5.00;2.60;;;;;;;13.24;69.60;101519.94;95321;1180;98346;-60
2021/09/05 06:49:26;;;;;;;5.30;2.10;;;;;;;13.26;69.62;101519.75;95262;1180;86804;-60
2021/09/05 06:51:33;;;;;;;3.60;1.70;;;;;;;13.32;69.15;101520.59;95263;1180;93248;-60
2021/09/05 06:53:41;;;;;;;2.50;1.40;;;;;;;13.33;68.95;101523.79;95269;1180;79594;-60
2021/09/05 06:55:49;;;;;;;3.50;1.70;;;;;;;13.36;68.93;101524.67;95319;1180;81711;-60
2021/09/05 06:57:56;;;;;;;2.80;1.60;;;;;;;13.42;68.98;101529.05;95272;1180;99453;-60
2021/09/05 07:00:10;;;;;;;2.40;1.40;;;;;;;13.41;68.73;101525.81;95301;1180;88922;-60
2021/09/05 07:02:20;;;;;;;2.40;1.30;;;;;;;13.40;68.23;101530.39;95284;1180;94623;-61
2021/09/05 07:04:28;;;;;;;2.50;1.40;;;;;;;13.44;68.75;101531.43;95303;1180;78799;-60
2021/09/05 07:06:35;;;;;;;2.80;1.60;;;;;;;13.53;68.55;101531.67;95285;1180;80411;-60
2021/09/05 07:08:43;;;;;;;2.80;1.30;;;;;;;13.56;68.28;101536.38;95262;1180;98959;-59
2021/09/05 07:10:51;;;;;;;2.60;1.30;;;;;;;13.68;68.50;101539.34;95288;1180;87602;-60
2021/09/05 07:13:01;;;;;;;3.40;1.30;;;;;;;13.90;67.75;101541.73;95256;1180;93912;-61
2021/09/05 07:15:13;;;;;;;2.70;1.70;;;;;;;14.10;67.63;101547.08;95258;1180;79134;-63
2021/09/05 07:17:20;;;;;;;2.60;1.30;;;;;;;14.22;66.98;101545.48;95304;1180;81716;-64
2021/09/05 07:19:28;;;;;;;3.40;1.50;;;;;;;14.23;66.93;101548.41;95250;1180;98907;-60
2021/09/05 07:21:43;;;;;;;3.30;1.50;;;;;;;14.18;66.74;101546.44;95270;1180;88144;-60
2021/09/05 07:23:50;;;;;;;5.40;1.70;;;;;;;14.24;66.73;101548.52;95332;1180;94129;-63
2021/09/05 07:25:58;;;;;;;4.20;1.70;;;;;;;14.30;66.96;101551.92;95248;1180;78775;-64
2021/09/05 07:28:06;;;;;;;6.20;1.50;;;;;;;14.38;66.91;101551.80;95310;1180;82181;-61
2021/09/05 07:30:16;;;;;;;3.50;1.60;;;;;;;14.48;66.53;101554.36;95275;1180;98646;-60
2021/09/05 07:32:24;;;;;;;3.90;1.60;;;;;;;14.48;66.03;101552.20;95299;1180;88398;-60
2021/09/05 07:34:31;;;;;;;2.20;1.10;;;;;;;14.56;65.74;101556.90;95270;1180;93779;-64
2021/09/05 07:36:40;;;;;;;2.70;1.30;;;;;;;14.87;65.41;101555.83;95267;1180;79999;-64
2021/09/05 07:38:47;;;;;;;2.30;1.40;;;;;;;15.09;65.04;101554.48;95291;1180;81604;-60
2021/09/05 07:40:55;;;;;;;1.60;1.00;;;;;;;15.34;64.46;101558.14;95278;1180;99069;-60
2021/09/05 07:43:03;;;;;;;2.80;1.10;;;;;;;15.40;63.78;101559.13;95271;1180;87374;-61
2021/09/05 07:45:13;;;;;;;1.90;1.20;;;;;;;15.35;63.61;101562.77;95242;1180;94233;-60
2021/09/05 07:47:21;;;;;;;2.60;1.10;;;;;;;15.27;63.50;101560.91;95236;1181;79738;-60
2021/09/05 07:49:28;;;;;;;2.50;1.50;;;;;;;15.33;63.10;101564.45;95273;1180;82106;-64
2021/09/05 07:51:39;;;;;;;3.00;1.20;;;;;;;15.56;63.14;101569.05;95313;1180;98809;-65
2021/09/05 07:53:50;;;;;;;2.40;1.30;;;;;;;16.02;62.95;101571.79;95331;1180;88219;-65
2021/09/05 07:55:57;;;;;;;1.50;0.90;;;;;;;16.41;62.02;101568.66;95314;1180;94718;-65
2021/09/05 07:58:05;;;;;;;3.90;1.70;;;;;;;16.77;61.58;101570.90;95284;1180;78212;-67
2021/09/05 08:00:19;;;;;;;8.30;4.40;;;;;;;17.31;61.03;101571.19;95278;1180;82003;-66
2021/09/05 08:02:26;;;;;;;5.20;3.20;;;;;;;18.05;59.91;101573.76;95307;1180;98165;-67
2021/09/05 08:04:35;;;;;;;4.10;1.90;;;;;;;19.07;58.30;101574.17;95261;1180;88284;-63
2021/09/05 08:06:42;;;;;;;4.50;2.30;;;;;;;20.88;57.78;101574.41;95260;1180;92902;-63
2021/09/05 08:08:50;;;;;;;4.30;2.50;;;;;;;22.84;56.69;101573.91;95260;1180;80464;-65
2021/09/05 08:10:58;;;;;;;6.10;3.10;;;;;;;24.43;54.31;101574.02;95267;1180;80116;-64
2021/09/05 08:13:06;;;;;;;7.10;3.80;;;;;;;25.41;50.27;101565.58;95268;1180;98729;-64
2021/09/05 08:15:14;;;;;;;3.80;2.20;;;;;;;25.99;49.82;101567.99;95282;1180;87625;-64
2021/09/05 08:17:27;;;;;;;4.60;2.70;;;;;;;26.45;47.81;101572.05;95246;1180;93123;-64
2021/09/05 08:19:34;;;;;;;2.70;2.00;;;;;;;26.87;46.35;101566.30;95273;1180;77604;-66
2021/09/05 08:21:42;;;;;;;2.40;1.40;;;;;;;27.56;44.62;101570.73;95300;1180;80299;-67
2021/09/05 08:23:51;;;;;;;1.80;1.30;;;;;;;27.69;41.61;101574.26;95252;1181;100906;-69
2021/09/05 08:26:04;;;;;;;3.60;2.40;;;;;;;27.58;40.92;101572.08;95277;1180;87913;-70
2021/09/05 08:28:12;;;;;;;6.10;2.60;;;;;;;27.09;40.10;101572.20;95307;1180;93945;-69
2021/09/05 08:30:20;;;;;;;2.40;1.60;;;;;;;27.30;39.60;101574.02;95243;1181;79900;-70
2021/09/05 08:32:28;;;;;;;3.70;2.60;;;;;;;27.56;39.11;101570.32;95257;1180;81691;-70
2021/09/05 08:34:37;;;;;;;3.80;2.30;;;;;;;28.27;39.15;101569.80;95298;1180;97175;-68
2021/09/05 08:36:44;;;;;;;4.70;1.50;;;;;;;28.84;37.70;101577.26;95283;1180;87229;-69
2021/09/05 08:38:56;;;;;;;3.10;1.70;;;;;;;28.62;37.74;101581.73;95272;1180;94591;-68
2021/09/05 08:41:07;;;;;;;3.00;1.90;;;;;;;28.66;36.33;101584.64;95241;1180;79931;-67
2021/09/05 08:43:17;;;;;;;1.90;1.30;;;;;;;28.94;36.25;101586.30;95264;1180;82629;-70
2021/09/05 08:45:25;;;;;;;2.00;1.10;;;;;;;29.08;35.66;101576.85;95279;1180;100579;-66
2021/09/05 08:47:36;;;;;;;2.10;0.90;;;;;;;28.83;34.77;101586.40;95292;1180;88583;-67
2021/09/05 08:49:46;;;;;;;2.10;1.10;;;;;;;28.49;34.05;101583.09;95273;1180;93860;-67
2021/09/05 08:51:54;;;;;;;1.90;1.10;;;;;;;27.94;32.81;101582.37;95302;1180;79093;-67
2021/09/05 08:54:02;;;;;;;1.20;1.00;;;;;;;27.61;34.05;101583.34;95278;1180;82152;-69
2021/09/05 08:56:12;;;;;;;1.80;0.90;;;;;;;27.21;33.99;101584.69;95289;1180;99679;-69
2021/09/05 08:58:20;;;;;;;1.50;0.80;;;;;;;26.98;33.51;101586.73;95271;1180;87108;-68
2021/09/05 09:00:29;;;;;;;1.00;0.90;;;;;;;27.12;34.00;101582.20;95286;1180;93300;-69
2021/09/05 09:02:52;;;;;;;1.10;0.90;;;;;;;27.29;33.38;101584.44;95293;1180;79963;-70
2021/09/05 09:05:01;;;;;;;2.10;1.20;;;;;;;26.87;33.35;101579.68;95284;1180;81878;-67
2021/09/05 09:07:14;;;;;;;1.40;1.00;;;;;;;26.69;32.93;101579.45;95277;1180;99437;-67
2021/09/05 09:09:30;;;;;;;1.60;1.10;;;;;;;27.13;33.53;101579.22;95389;1175;85511;-69
2021/09/05 09:11:57;;;;;;;1.50;1.00;;;;;;;26.79;31.35;101581.55;95361;1180;94820;-69
2021/09/05 09:14:07;;;;;;;0.80;0.60;;;;;;;26.39;32.25;101582.88;95347;1180;79075;-67
2021/09/05 09:16:15;;;;;;;1.10;0.80;;;;;;;26.50;32.35;101583.39;95327;1180;81713;-68
2021/09/05 09:18:32;;;;;;;1.00;0.80;;;;;;;26.87;32.62;101580.55;95357;1180;98288;-68
2021/09/05 09:20:43;;;;;;;1.40;0.90;;;;;;;26.56;32.35;101583.87;95328;1180;86772;-68
2021/09/05 09:23:06;;;;;;;1.00;0.80;;;;;;;25.49;32.89;101586.77;95321;1180;94475;-67
2021/09/05 09:25:14;;;;;;;1.20;0.80;;;;;;;24.47;33.00;101588.02;95312;1180;78724;-67
2021/09/05 09:27:26;;;;;;;0.60;0.60;;;;;;;24.71;33.81;101586.13;95336;1180;81328;-66
2021/09/05 09:29:36;;;;;;;1.00;0.80;;;;;;;24.78;34.21;101583.36;95350;1180;98713;-67
2021/09/05 09:31:45;;;;;;;2.10;1.00;;;;;;;24.67;33.63;101580.72;95302;1180;88390;-65
2021/09/05 09:33:56;;;;;;;1.00;0.70;;;;;;;24.47;33.91;101587.41;95310;1180;94797;-65
2021/09/05 09:36:06;;;;;;;1.00;0.70;;;;;;;24.31;33.55;101583.17;95319;1180;79273;-69
2021/09/05 09:38:15;;;;;;;0.90;0.80;;;;;;;23.40;32.65;101582.20;95400;1180;81255;-65
2021/09/05 09:40:29;;;;;;;3.00;0.50;;;;;;;22.26;34.62;101582.66;95322;1180;99300;-65
2021/09/05 09:42:39;;;;;;;2.10;0.80;;;;;;;21.67;35.33;101578.93;95339;1180;86893;-65
2021/09/05 09:44:56;;;;;;;1.20;0.70;;;;;;;21.41;34.94;101575.30;95315;1180;93827;-66
2021/09/05 09:47:22;;;;;;;1.20;0.60;;;;;;;21.24;35.14;101577.19;95330;1180;79436;-68
2021/09/05 09:49:49;;;;;;;1.00;0.70;;;;;;;21.55;36.24;101572.50;95325;1180;81563;-69
2021/09/05 09:52:01;;;;;;;2.90;0.70;;;;;;;21.91;36.73;101572.25;95340;1180;99286;-68
2021/09/05 09:54:12;;;;;;;1.70;0.90;;;;;;;21.85;35.66;101576.68;95255;1180;86902;-73
2021/09/05 09:56:24;;;;;;;1.30;0.70;;;;;;;21.61;36.24;101574.40;95315;1180;92274;-74
2021/09/05 09:58:37;;;;;;;1.70;0.80;;;;;;;21.34;36.10;101572.02;95339;1180;78801;-73
2021/09/05 10:00:48;;;;;;;3.30;0.90;;;;;;;21.22;37.01;101568.33;95330;1180;80705;-69